sensor_id;sensor_type;location;lat;lon;timestamp;P1;durP1;ratioP1;P2;durP2;ratioP2
22841;SDS011;11587;47.064;15.444;2023-04-25T00:02:17;0.20;;;0.20;;
22841;SDS011;11587;47.064;15.444;2023-04-25T00:04:44;0.10;;;0.10;;
22841;SDS011;11587;47.064;15.444;2023-04-25T00:07:11;0.20;;;0.20;;
22841;SDS011;11587;47.064;15.444;2023-04-25T00:09:37;0.10;;;0.10;;
22841;SDS011;11587;47.064;15.444;2023-04-25T00:12:03;0.20;;;0.20;;
22841;SDS011;11587;47.064;15.444;2023-04-25T00:14:30;0.20;;;0.20;;
22841;SDS011;11587;47.064;15.444;2023-04-25T00:16:59;0.20;;;0.20;;
22841;SDS011;11587;47.064;15.444;2023-04-25T00:19:25;0.20;;;0.20;;
22841;SDS011;11587;47.064;15.444;2023-04-25T00:21:53;0.20;;;0.20;;
22841;SDS011;11587;47.064;15.444;2023-04-25T00:24:19;0.10;;;0.10;;
22841;SDS011;11587;47.064;15.444;2023-04-25T00:26:45;0.10;;;0.10;;
22841;SDS011;11587;47.064;15.444;2023-04-25T00:29:20;0.20;;;0.20;;
22841;SDS011;11587;47.064;15.444;2023-04-25T00:31:49;0.20;;;0.20;;
22841;SDS011;11587;47.064;15.444;2023-04-25T00:34:15;0.20;;;0.20;;
22841;SDS011;11587;47.064;15.444;2023-04-25T00:36:41;0.20;;;0.20;;
22841;SDS011;11587;47.064;15.444;2023-04-25T00:39:07;0.20;;;0.20;;
22841;SDS011;11587;47.064;15.444;2023-04-25T00:41:33;0.20;;;0.20;;
22841;SDS011;11587;47.064;15.444;2023-04-25T00:44:00;0.20;;;0.20;;
22841;SDS011;11587;47.064;15.444;2023-04-25T00:46:26;0.20;;;0.20;;
22841;SDS011;11587;47.064;15.444;2023-04-25T00:48:52;0.20;;;0.20;;
22841;SDS011;11587;47.064;15.444;2023-04-25T00:51:21;0.20;;;0.20;;
22841;SDS011;11587;47.064;15.444;2023-04-25T00:53:48;0.20;;;0.20;;
22841;SDS011;11587;47.064;15.444;2023-04-25T00:56:15;0.20;;;0.20;;
22841;SDS011;11587;47.064;15.444;2023-04-25T00:58:41;0.20;;;0.20;;
22841;SDS011;11587;47.064;15.444;2023-04-25T01:01:08;0.20;;;0.20;;
22841;SDS011;11587;47.064;15.444;2023-04-25T01:03:34;0.20;;;0.20;;
22841;SDS011;11587;47.064;15.444;2023-04-25T01:06:05;0.10;;;0.10;;
22841;SDS011;11587;47.064;15.444;2023-04-25T01:08:32;0.20;;;0.20;;
22841;SDS011;11587;47.064;15.444;2023-04-25T01:10:58;0.20;;;0.20;;
22841;SDS011;11587;47.064;15.444;2023-04-25T01:13:24;0.20;;;0.20;;
22841;SDS011;11587;47.064;15.444;2023-04-25T01:15:50;0.30;;;0.30;;
22841;SDS011;11587;47.064;15.444;2023-04-25T01:18:16;0.30;;;0.30;;
22841;SDS011;11587;47.064;15.444;2023-04-25T01:20:42;0.30;;;0.30;;
22841;SDS011;11587;47.064;15.444;2023-04-25T01:23:08;0.40;;;0.40;;
22841;SDS011;11587;47.064;15.444;2023-04-25T01:25:35;0.30;;;0.30;;
22841;SDS011;11587;47.064;15.444;2023-04-25T01:28:01;0.30;;;0.30;;
22841;SDS011;11587;47.064;15.444;2023-04-25T01:30:27;0.30;;;0.30;;
22841;SDS011;11587;47.064;15.444;2023-04-25T01:32:55;0.30;;;0.30;;
22841;SDS011;11587;47.064;15.444;2023-04-25T01:35:21;0.30;;;0.30;;
22841;SDS011;11587;47.064;15.444;2023-04-25T01:37:49;0.30;;;0.30;;
22841;SDS011;11587;47.064;15.444;2023-04-25T01:40:15;0.35;;;0.35;;
22841;SDS011;11587;47.064;15.444;2023-04-25T01:42:42;0.40;;;0.40;;
22841;SDS011;11587;47.064;15.444;2023-04-25T01:45:09;0.35;;;0.35;;
22841;SDS011;11587;47.064;15.444;2023-04-25T01:47:36;0.30;;;0.30;;
22841;SDS011;11587;47.064;15.444;2023-04-25T01:50:03;0.40;;;0.40;;
22841;SDS011;11587;47.064;15.444;2023-04-25T01:52:29;0.30;;;0.30;;
22841;SDS011;11587;47.064;15.444;2023-04-25T01:54:55;0.30;;;0.30;;
22841;SDS011;11587;47.064;15.444;2023-04-25T01:57:23;0.40;;;0.40;;
22841;SDS011;11587;47.064;15.444;2023-04-25T01:59:49;0.30;;;0.30;;
22841;SDS011;11587;47.064;15.444;2023-04-25T02:02:16;0.30;;;0.30;;
22841;SDS011;11587;47.064;15.444;2023-04-25T02:04:42;0.30;;;0.30;;
22841;SDS011;11587;47.064;15.444;2023-04-25T02:07:08;0.40;;;0.40;;
22841;SDS011;11587;47.064;15.444;2023-04-25T02:09:34;0.40;;;0.40;;
22841;SDS011;11587;47.064;15.444;2023-04-25T02:12:00;0.30;;;0.30;;
22841;SDS011;11587;47.064;15.444;2023-04-25T02:14:26;0.38;;;0.38;;
22841;SDS011;11587;47.064;15.444;2023-04-25T02:16:53;0.30;;;0.30;;
22841;SDS011;11587;47.064;15.444;2023-04-25T02:19:19;0.30;;;0.30;;
22841;SDS011;11587;47.064;15.444;2023-04-25T02:21:45;0.38;;;0.38;;
22841;SDS011;11587;47.064;15.444;2023-04-25T02:24:11;0.40;;;0.40;;
22841;SDS011;11587;47.064;15.444;2023-04-25T02:26:37;0.40;;;0.40;;
22841;SDS011;11587;47.064;15.444;2023-04-25T02:29:03;0.32;;;0.32;;
22841;SDS011;11587;47.064;15.444;2023-04-25T02:31:30;0.40;;;0.40;;
22841;SDS011;11587;47.064;15.444;2023-04-25T02:33:56;0.32;;;0.32;;
22841;SDS011;11587;47.064;15.444;2023-04-25T02:36:22;0.30;;;0.30;;
22841;SDS011;11587;47.064;15.444;2023-04-25T02:38:49;0.32;;;0.32;;
22841;SDS011;11587;47.064;15.444;2023-04-25T02:41:15;0.40;;;0.40;;
22841;SDS011;11587;47.064;15.444;2023-04-25T02:43:41;0.30;;;0.30;;
22841;SDS011;11587;47.064;15.444;2023-04-25T02:46:07;0.30;;;0.30;;
22841;SDS011;11587;47.064;15.444;2023-04-25T02:48:33;0.30;;;0.30;;
22841;SDS011;11587;47.064;15.444;2023-04-25T02:50:59;0.40;;;0.40;;
22841;SDS011;11587;47.064;15.444;2023-04-25T02:53:25;0.40;;;0.40;;
22841;SDS011;11587;47.064;15.444;2023-04-25T02:55:51;0.40;;;0.40;;
22841;SDS011;11587;47.064;15.444;2023-04-25T02:58:17;0.40;;;0.40;;
22841;SDS011;11587;47.064;15.444;2023-04-25T03:00:44;0.40;;;0.40;;
22841;SDS011;11587;47.064;15.444;2023-04-25T03:03:10;0.40;;;0.40;;
22841;SDS011;11587;47.064;15.444;2023-04-25T03:05:36;0.30;;;0.30;;
22841;SDS011;11587;47.064;15.444;2023-04-25T03:08:02;0.40;;;0.40;;
22841;SDS011;11587;47.064;15.444;2023-04-25T03:10:28;0.40;;;0.40;;
22841;SDS011;11587;47.064;15.444;2023-04-25T03:12:54;0.40;;;0.40;;
22841;SDS011;11587;47.064;15.444;2023-04-25T03:15:20;0.50;;;0.50;;
22841;SDS011;11587;47.064;15.444;2023-04-25T03:17:47;0.40;;;0.40;;
22841;SDS011;11587;47.064;15.444;2023-04-25T03:20:13;0.40;;;0.40;;
22841;SDS011;11587;47.064;15.444;2023-04-25T03:22:39;0.40;;;0.40;;
22841;SDS011;11587;47.064;15.444;2023-04-25T03:25:05;0.40;;;0.40;;
22841;SDS011;11587;47.064;15.444;2023-04-25T03:27:31;0.40;;;0.40;;
22841;SDS011;11587;47.064;15.444;2023-04-25T03:29:57;0.40;;;0.40;;
22841;SDS011;11587;47.064;15.444;2023-04-25T03:32:24;0.50;;;0.50;;
22841;SDS011;11587;47.064;15.444;2023-04-25T03:34:50;0.40;;;0.40;;
22841;SDS011;11587;47.064;15.444;2023-04-25T03:37:16;0.40;;;0.40;;
22841;SDS011;11587;47.064;15.444;2023-04-25T03:39:42;0.40;;;0.40;;
22841;SDS011;11587;47.064;15.444;2023-04-25T03:42:08;0.40;;;0.40;;
22841;SDS011;11587;47.064;15.444;2023-04-25T03:44:34;0.40;;;0.40;;
22841;SDS011;11587;47.064;15.444;2023-04-25T03:47:00;0.40;;;0.40;;
22841;SDS011;11587;47.064;15.444;2023-04-25T03:49:32;0.40;;;0.40;;
22841;SDS011;11587;47.064;15.444;2023-04-25T03:52:04;0.20;;;0.20;;
22841;SDS011;11587;47.064;15.444;2023-04-25T03:54:33;0.20;;;0.20;;
22841;SDS011;11587;47.064;15.444;2023-04-25T03:57:02;0.20;;;0.20;;
22841;SDS011;11587;47.064;15.444;2023-04-25T03:59:28;0.20;;;0.20;;
22841;SDS011;11587;47.064;15.444;2023-04-25T04:01:54;0.20;;;0.20;;
22841;SDS011;11587;47.064;15.444;2023-04-25T04:04:20;0.20;;;0.20;;
22841;SDS011;11587;47.064;15.444;2023-04-25T04:06:46;0.20;;;0.20;;
22841;SDS011;11587;47.064;15.444;2023-04-25T04:09:12;0.20;;;0.20;;
22841;SDS011;11587;47.064;15.444;2023-04-25T04:11:38;0.20;;;0.20;;
22841;SDS011;11587;47.064;15.444;2023-04-25T04:14:05;0.20;;;0.20;;
22841;SDS011;11587;47.064;15.444;2023-04-25T04:16:32;0.20;;;0.20;;
22841;SDS011;11587;47.064;15.444;2023-04-25T04:18:58;0.20;;;0.20;;
22841;SDS011;11587;47.064;15.444;2023-04-25T04:21:24;0.20;;;0.20;;
22841;SDS011;11587;47.064;15.444;2023-04-25T04:23:51;0.20;;;0.20;;
22841;SDS011;11587;47.064;15.444;2023-04-25T04:26:17;0.20;;;0.20;;
22841;SDS011;11587;47.064;15.444;2023-04-25T04:28:43;0.20;;;0.20;;
22841;SDS011;11587;47.064;15.444;2023-04-25T04:31:10;0.20;;;0.20;;
22841;SDS011;11587;47.064;15.444;2023-04-25T04:33:36;0.20;;;0.20;;
22841;SDS011;11587;47.064;15.444;2023-04-25T04:36:03;0.20;;;0.20;;
22841;SDS011;11587;47.064;15.444;2023-04-25T04:38:29;0.20;;;0.20;;
22841;SDS011;11587;47.064;15.444;2023-04-25T04:40:55;0.20;;;0.20;;
22841;SDS011;11587;47.064;15.444;2023-04-25T04:43:21;0.20;;;0.20;;
22841;SDS011;11587;47.064;15.444;2023-04-25T04:45:48;0.20;;;0.20;;
22841;SDS011;11587;47.064;15.444;2023-04-25T04:48:15;0.20;;;0.20;;
22841;SDS011;11587;47.064;15.444;2023-04-25T04:50:42;0.20;;;0.20;;
22841;SDS011;11587;47.064;15.444;2023-04-25T04:53:10;0.20;;;0.20;;
22841;SDS011;11587;47.064;15.444;2023-04-25T04:55:36;0.20;;;0.20;;
22841;SDS011;11587;47.064;15.444;2023-04-25T04:58:03;0.20;;;0.20;;
22841;SDS011;11587;47.064;15.444;2023-04-25T05:00:29;0.30;;;0.30;;
22841;SDS011;11587;47.064;15.444;2023-04-25T05:02:55;0.30;;;0.30;;
22841;SDS011;11587;47.064;15.444;2023-04-25T05:05:21;0.20;;;0.20;;
22841;SDS011;11587;47.064;15.444;2023-04-25T05:07:47;0.20;;;0.20;;
22841;SDS011;11587;47.064;15.444;2023-04-25T05:10:13;0.20;;;0.20;;
22841;SDS011;11587;47.064;15.444;2023-04-25T05:12:46;0.20;;;0.20;;
22841;SDS011;11587;47.064;15.444;2023-04-25T05:15:18;0.30;;;0.30;;
22841;SDS011;11587;47.064;15.444;2023-04-25T05:17:44;0.20;;;0.20;;
22841;SDS011;11587;47.064;15.444;2023-04-25T05:20:10;0.20;;;0.20;;
22841;SDS011;11587;47.064;15.444;2023-04-25T05:22:39;0.20;;;0.20;;
22841;SDS011;11587;47.064;15.444;2023-04-25T05:25:08;0.20;;;0.20;;
22841;SDS011;11587;47.064;15.444;2023-04-25T05:27:35;0.20;;;0.20;;
22841;SDS011;11587;47.064;15.444;2023-04-25T05:30:01;0.20;;;0.20;;
22841;SDS011;11587;47.064;15.444;2023-04-25T05:32:27;0.20;;;0.20;;
22841;SDS011;11587;47.064;15.444;2023-04-25T05:34:53;0.20;;;0.20;;
22841;SDS011;11587;47.064;15.444;2023-04-25T05:37:19;0.20;;;0.20;;
22841;SDS011;11587;47.064;15.444;2023-04-25T05:39:45;0.20;;;0.20;;
22841;SDS011;11587;47.064;15.444;2023-04-25T05:42:11;0.20;;;0.20;;
22841;SDS011;11587;47.064;15.444;2023-04-25T05:44:37;0.20;;;0.20;;
22841;SDS011;11587;47.064;15.444;2023-04-25T05:47:03;0.30;;;0.30;;
22841;SDS011;11587;47.064;15.444;2023-04-25T05:49:30;0.20;;;0.20;;
22841;SDS011;11587;47.064;15.444;2023-04-25T05:51:56;0.20;;;0.20;;
22841;SDS011;11587;47.064;15.444;2023-04-25T05:54:22;0.20;;;0.20;;
22841;SDS011;11587;47.064;15.444;2023-04-25T05:56:48;0.28;;;0.28;;
22841;SDS011;11587;47.064;15.444;2023-04-25T05:59:14;0.20;;;0.20;;
22841;SDS011;11587;47.064;15.444;2023-04-25T06:01:41;0.20;;;0.20;;
22841;SDS011;11587;47.064;15.444;2023-04-25T06:04:07;0.20;;;0.20;;
22841;SDS011;11587;47.064;15.444;2023-04-25T06:06:33;0.20;;;0.20;;
22841;SDS011;11587;47.064;15.444;2023-04-25T06:08:59;0.20;;;0.20;;
22841;SDS011;11587;47.064;15.444;2023-04-25T06:11:25;0.25;;;0.25;;
22841;SDS011;11587;47.064;15.444;2023-04-25T06:13:51;0.20;;;0.20;;
22841;SDS011;11587;47.064;15.444;2023-04-25T06:16:17;0.20;;;0.20;;
22841;SDS011;11587;47.064;15.444;2023-04-25T06:18:44;0.20;;;0.20;;
22841;SDS011;11587;47.064;15.444;2023-04-25T06:21:10;0.20;;;0.20;;
22841;SDS011;11587;47.064;15.444;2023-04-25T06:23:36;0.20;;;0.20;;
22841;SDS011;11587;47.064;15.444;2023-04-25T06:26:02;0.20;;;0.20;;
22841;SDS011;11587;47.064;15.444;2023-04-25T06:28:28;0.20;;;0.20;;
22841;SDS011;11587;47.064;15.444;2023-04-25T06:30:54;0.20;;;0.20;;
22841;SDS011;11587;47.064;15.444;2023-04-25T06:33:20;0.20;;;0.20;;
22841;SDS011;11587;47.064;15.444;2023-04-25T06:35:47;0.20;;;0.20;;
22841;SDS011;11587;47.064;15.444;2023-04-25T06:38:13;0.20;;;0.20;;
22841;SDS011;11587;47.064;15.444;2023-04-25T06:40:39;0.20;;;0.20;;
22841;SDS011;11587;47.064;15.444;2023-04-25T06:43:05;0.20;;;0.20;;
22841;SDS011;11587;47.064;15.444;2023-04-25T06:45:31;0.20;;;0.20;;
22841;SDS011;11587;47.064;15.444;2023-04-25T06:47:57;0.20;;;0.20;;
22841;SDS011;11587;47.064;15.444;2023-04-25T06:50:24;0.20;;;0.20;;
22841;SDS011;11587;47.064;15.444;2023-04-25T06:52:50;0.20;;;0.20;;
22841;SDS011;11587;47.064;15.444;2023-04-25T06:55:16;0.20;;;0.20;;
22841;SDS011;11587;47.064;15.444;2023-04-25T06:57:42;0.20;;;0.20;;
22841;SDS011;11587;47.064;15.444;2023-04-25T07:00:08;0.20;;;0.20;;
22841;SDS011;11587;47.064;15.444;2023-04-25T07:02:34;0.20;;;0.20;;
22841;SDS011;11587;47.064;15.444;2023-04-25T07:05:01;0.20;;;0.20;;
22841;SDS011;11587;47.064;15.444;2023-04-25T07:07:29;0.20;;;0.20;;
22841;SDS011;11587;47.064;15.444;2023-04-25T07:09:55;0.20;;;0.20;;
22841;SDS011;11587;47.064;15.444;2023-04-25T07:12:21;0.20;;;0.20;;
22841;SDS011;11587;47.064;15.444;2023-04-25T07:14:47;0.20;;;0.20;;
22841;SDS011;11587;47.064;15.444;2023-04-25T07:17:13;0.20;;;0.20;;
22841;SDS011;11587;47.064;15.444;2023-04-25T07:19:40;0.20;;;0.20;;
22841;SDS011;11587;47.064;15.444;2023-04-25T07:22:06;0.20;;;0.20;;
22841;SDS011;11587;47.064;15.444;2023-04-25T07:24:33;0.20;;;0.20;;
22841;SDS011;11587;47.064;15.444;2023-04-25T07:26:59;0.20;;;0.20;;
22841;SDS011;11587;47.064;15.444;2023-04-25T07:29:26;0.20;;;0.20;;
22841;SDS011;11587;47.064;15.444;2023-04-25T07:31:52;0.20;;;0.20;;
22841;SDS011;11587;47.064;15.444;2023-04-25T07:34:18;0.20;;;0.20;;
22841;SDS011;11587;47.064;15.444;2023-04-25T07:36:44;0.20;;;0.20;;
22841;SDS011;11587;47.064;15.444;2023-04-25T07:39:10;0.20;;;0.20;;
22841;SDS011;11587;47.064;15.444;2023-04-25T07:41:36;0.20;;;0.20;;
22841;SDS011;11587;47.064;15.444;2023-04-25T07:44:03;0.20;;;0.20;;
22841;SDS011;11587;47.064;15.444;2023-04-25T07:46:31;0.20;;;0.20;;
22841;SDS011;11587;47.064;15.444;2023-04-25T07:48:57;0.20;;;0.20;;
22841;SDS011;11587;47.064;15.444;2023-04-25T07:51:24;0.10;;;0.10;;
22841;SDS011;11587;47.064;15.444;2023-04-25T07:53:51;0.30;;;0.30;;
22841;SDS011;11587;47.064;15.444;2023-04-25T07:56:17;0.20;;;0.20;;
22841;SDS011;11587;47.064;15.444;2023-04-25T07:58:43;0.20;;;0.20;;
22841;SDS011;11587;47.064;15.444;2023-04-25T08:01:09;0.20;;;0.20;;
22841;SDS011;11587;47.064;15.444;2023-04-25T08:03:35;0.20;;;0.20;;
22841;SDS011;11587;47.064;15.444;2023-04-25T08:06:01;0.10;;;0.10;;
22841;SDS011;11587;47.064;15.444;2023-04-25T08:08:27;0.20;;;0.20;;
22841;SDS011;11587;47.064;15.444;2023-04-25T08:10:53;0.10;;;0.10;;
22841;SDS011;11587;47.064;15.444;2023-04-25T08:13:19;0.20;;;0.20;;
22841;SDS011;11587;47.064;15.444;2023-04-25T08:15:45;0.20;;;0.20;;
22841;SDS011;11587;47.064;15.444;2023-04-25T08:18:11;0.10;;;0.10;;
22841;SDS011;11587;47.064;15.444;2023-04-25T08:20:37;0.10;;;0.10;;
22841;SDS011;11587;47.064;15.444;2023-04-25T08:23:03;0.10;;;0.10;;
22841;SDS011;11587;47.064;15.444;2023-04-25T08:25:55;0.20;;;0.20;;
22841;SDS011;11587;47.064;15.444;2023-04-25T08:28:21;0.10;;;0.10;;
22841;SDS011;11587;47.064;15.444;2023-04-25T08:30:47;0.15;;;0.15;;
22841;SDS011;11587;47.064;15.444;2023-04-25T08:33:13;0.10;;;0.10;;
22841;SDS011;11587;47.064;15.444;2023-04-25T08:35:45;0.15;;;0.15;;
22841;SDS011;11587;47.064;15.444;2023-04-25T08:38:14;0.10;;;0.10;;
22841;SDS011;11587;47.064;15.444;2023-04-25T08:40:46;0.10;;;0.10;;
22841;SDS011;11587;47.064;15.444;2023-04-25T08:43:18;0.10;;;0.10;;
22841;SDS011;11587;47.064;15.444;2023-04-25T08:45:57;0.13;;;0.13;;
22841;SDS011;11587;47.064;15.444;2023-04-25T08:50:55;0.10;;;0.10;;
22841;SDS011;11587;47.064;15.444;2023-04-25T08:53:59;0.10;;;0.10;;
22841;SDS011;11587;47.064;15.444;2023-04-25T08:56:25;0.10;;;0.10;;
22841;SDS011;11587;47.064;15.444;2023-04-25T08:58:51;0.10;;;0.10;;
22841;SDS011;11587;47.064;15.444;2023-04-25T09:01:18;0.10;;;0.10;;
22841;SDS011;11587;47.064;15.444;2023-04-25T09:03:44;0.20;;;0.20;;
22841;SDS011;11587;47.064;15.444;2023-04-25T09:06:12;0.10;;;0.10;;
22841;SDS011;11587;47.064;15.444;2023-04-25T09:08:38;0.20;;;0.20;;
22841;SDS011;11587;47.064;15.444;2023-04-25T09:11:07;0.10;;;0.10;;
22841;SDS011;11587;47.064;15.444;2023-04-25T09:13:33;0.10;;;0.10;;
22841;SDS011;11587;47.064;15.444;2023-04-25T09:15:59;0.10;;;0.10;;
22841;SDS011;11587;47.064;15.444;2023-04-25T09:18:25;0.10;;;0.10;;
22841;SDS011;11587;47.064;15.444;2023-04-25T09:21:04;0.10;;;0.10;;
22841;SDS011;11587;47.064;15.444;2023-04-25T09:23:38;0.10;;;0.10;;
22841;SDS011;11587;47.064;15.444;2023-04-25T09:26:05;0.10;;;0.10;;
22841;SDS011;11587;47.064;15.444;2023-04-25T09:28:32;0.10;;;0.10;;
22841;SDS011;11587;47.064;15.444;2023-04-25T09:31:00;0.10;;;0.10;;
22841;SDS011;11587;47.064;15.444;2023-04-25T09:33:30;0.10;;;0.10;;
22841;SDS011;11587;47.064;15.444;2023-04-25T09:36:14;0.10;;;0.10;;
22841;SDS011;11587;47.064;15.444;2023-04-25T09:38:41;0.10;;;0.10;;
22841;SDS011;11587;47.064;15.444;2023-04-25T09:41:08;0.10;;;0.10;;
22841;SDS011;11587;47.064;15.444;2023-04-25T09:43:35;0.10;;;0.10;;
22841;SDS011;11587;47.064;15.444;2023-04-25T09:46:10;0.10;;;0.10;;
22841;SDS011;11587;47.064;15.444;2023-04-25T09:48:36;0.10;;;0.10;;
22841;SDS011;11587;47.064;15.444;2023-04-25T09:53:29;0.10;;;0.10;;
22841;SDS011;11587;47.064;15.444;2023-04-25T09:55:57;0.10;;;0.10;;
22841;SDS011;11587;47.064;15.444;2023-04-25T09:58:24;0.10;;;0.10;;
22841;SDS011;11587;47.064;15.444;2023-04-25T10:00:51;0.10;;;0.10;;
22841;SDS011;11587;47.064;15.444;2023-04-25T10:03:17;0.10;;;0.10;;
22841;SDS011;11587;47.064;15.444;2023-04-25T10:05:43;0.10;;;0.10;;
22841;SDS011;11587;47.064;15.444;2023-04-25T10:08:10;0.10;;;0.10;;
22841;SDS011;11587;47.064;15.444;2023-04-25T10:10:37;0.10;;;0.10;;
22841;SDS011;11587;47.064;15.444;2023-04-25T10:13:06;0.10;;;0.10;;
22841;SDS011;11587;47.064;15.444;2023-04-25T10:15:34;0.10;;;0.10;;
22841;SDS011;11587;47.064;15.444;2023-04-25T10:18:03;0.10;;;0.10;;
22841;SDS011;11587;47.064;15.444;2023-04-25T10:20:31;0.10;;;0.10;;
22841;SDS011;11587;47.064;15.444;2023-04-25T10:22:58;0.10;;;0.10;;
22841;SDS011;11587;47.064;15.444;2023-04-25T10:25:29;0.17;;;0.17;;
22841;SDS011;11587;47.064;15.444;2023-04-25T10:27:56;0.10;;;0.10;;
22841;SDS011;11587;47.064;15.444;2023-04-25T10:30:22;0.10;;;0.10;;
22841;SDS011;11587;47.064;15.444;2023-04-25T10:32:48;0.10;;;0.10;;
22841;SDS011;11587;47.064;15.444;2023-04-25T10:35:19;0.10;;;0.10;;
22841;SDS011;11587;47.064;15.444;2023-04-25T10:40:40;0.10;;;0.10;;
22841;SDS011;11587;47.064;15.444;2023-04-25T10:45:51;0.10;;;0.10;;
22841;SDS011;11587;47.064;15.444;2023-04-25T10:48:27;0.10;;;0.10;;
22841;SDS011;11587;47.064;15.444;2023-04-25T10:51:15;0.10;;;0.10;;
22841;SDS011;11587;47.064;15.444;2023-04-25T10:53:43;0.00;;;0.00;;
22841;SDS011;11587;47.064;15.444;2023-04-25T10:56:10;0.10;;;0.10;;
22841;SDS011;11587;47.064;15.444;2023-04-25T10:58:41;0.10;;;0.10;;
22841;SDS011;11587;47.064;15.444;2023-04-25T11:01:07;0.10;;;0.10;;
22841;SDS011;11587;47.064;15.444;2023-04-25T11:03:37;0.10;;;0.10;;
22841;SDS011;11587;47.064;15.444;2023-04-25T11:06:03;0.00;;;0.00;;
22841;SDS011;11587;47.064;15.444;2023-04-25T11:08:47;0.10;;;0.10;;
22841;SDS011;11587;47.064;15.444;2023-04-25T11:11:13;0.00;;;0.00;;
22841;SDS011;11587;47.064;15.444;2023-04-25T11:13:40;0.10;;;0.10;;
22841;SDS011;11587;47.064;15.444;2023-04-25T11:16:09;0.00;;;0.00;;
22841;SDS011;11587;47.064;15.444;2023-04-25T11:18:35;0.00;;;0.00;;
22841;SDS011;11587;47.064;15.444;2023-04-25T11:21:03;0.05;;;0.05;;
22841;SDS011;11587;47.064;15.444;2023-04-25T11:23:29;0.10;;;0.10;;
22841;SDS011;11587;47.064;15.444;2023-04-25T11:25:55;0.10;;;0.10;;
22841;SDS011;11587;47.064;15.444;2023-04-25T11:28:22;0.10;;;0.10;;
22841;SDS011;11587;47.064;15.444;2023-04-25T11:30:51;0.00;;;0.00;;
22841;SDS011;11587;47.064;15.444;2023-04-25T11:33:17;0.10;;;0.10;;
22841;SDS011;11587;47.064;15.444;2023-04-25T11:35:43;0.10;;;0.10;;
22841;SDS011;11587;47.064;15.444;2023-04-25T11:38:09;0.10;;;0.10;;
22841;SDS011;11587;47.064;15.444;2023-04-25T11:40:36;0.20;;;0.20;;
22841;SDS011;11587;47.064;15.444;2023-04-25T11:43:02;0.10;;;0.10;;
22841;SDS011;11587;47.064;15.444;2023-04-25T11:45:28;0.10;;;0.10;;
22841;SDS011;11587;47.064;15.444;2023-04-25T11:47:56;0.10;;;0.10;;
22841;SDS011;11587;47.064;15.444;2023-04-25T11:50:22;0.10;;;0.10;;
22841;SDS011;11587;47.064;15.444;2023-04-25T11:52:48;0.10;;;0.10;;
22841;SDS011;11587;47.064;15.444;2023-04-25T11:55:19;0.10;;;0.10;;
22841;SDS011;11587;47.064;15.444;2023-04-25T11:57:46;0.10;;;0.10;;
22841;SDS011;11587;47.064;15.444;2023-04-25T12:00:17;0.10;;;0.10;;
22841;SDS011;11587;47.064;15.444;2023-04-25T12:02:52;0.10;;;0.10;;
22841;SDS011;11587;47.064;15.444;2023-04-25T12:05:18;0.10;;;0.10;;
22841;SDS011;11587;47.064;15.444;2023-04-25T12:07:45;0.10;;;0.10;;
22841;SDS011;11587;47.064;15.444;2023-04-25T12:10:12;0.10;;;0.10;;
22841;SDS011;11587;47.064;15.444;2023-04-25T12:12:42;0.10;;;0.10;;
22841;SDS011;11587;47.064;15.444;2023-04-25T12:15:12;0.20;;;0.20;;
22841;SDS011;11587;47.064;15.444;2023-04-25T12:17:47;0.13;;;0.13;;
22841;SDS011;11587;47.064;15.444;2023-04-25T12:20:15;0.10;;;0.10;;
22841;SDS011;11587;47.064;15.444;2023-04-25T12:22:42;0.10;;;0.10;;
22841;SDS011;11587;47.064;15.444;2023-04-25T12:25:57;0.10;;;0.10;;
22841;SDS011;11587;47.064;15.444;2023-04-25T12:30:55;0.03;;;0.03;;
22841;SDS011;11587;47.064;15.444;2023-04-25T12:33:22;0.10;;;0.10;;
22841;SDS011;11587;47.064;15.444;2023-04-25T12:35:48;0.10;;;0.10;;
22841;SDS011;11587;47.064;15.444;2023-04-25T12:38:35;0.00;;;0.00;;
22841;SDS011;11587;47.064;15.444;2023-04-25T12:41:01;0.10;;;0.10;;
22841;SDS011;11587;47.064;15.444;2023-04-25T12:43:27;0.10;;;0.10;;
22841;SDS011;11587;47.064;15.444;2023-04-25T12:45:54;0.00;;;0.00;;
22841;SDS011;11587;47.064;15.444;2023-04-25T12:48:20;0.10;;;0.10;;
22841;SDS011;11587;47.064;15.444;2023-04-25T12:50:47;0.10;;;0.10;;
22841;SDS011;11587;47.064;15.444;2023-04-25T12:53:21;0.10;;;0.10;;
22841;SDS011;11587;47.064;15.444;2023-04-25T12:55:47;0.10;;;0.10;;
22841;SDS011;11587;47.064;15.444;2023-04-25T12:58:14;0.05;;;0.05;;
22841;SDS011;11587;47.064;15.444;2023-04-25T13:00:40;0.00;;;0.00;;
22841;SDS011;11587;47.064;15.444;2023-04-25T13:03:07;0.00;;;0.00;;
22841;SDS011;11587;47.064;15.444;2023-04-25T13:05:33;0.10;;;0.10;;
22841;SDS011;11587;47.064;15.444;2023-04-25T13:07:59;0.00;;;0.00;;
22841;SDS011;11587;47.064;15.444;2023-04-25T13:10:25;0.10;;;0.10;;
22841;SDS011;11587;47.064;15.444;2023-04-25T13:12:51;0.00;;;0.00;;
22841;SDS011;11587;47.064;15.444;2023-04-25T13:15:17;0.00;;;0.00;;
22841;SDS011;11587;47.064;15.444;2023-04-25T13:17:43;0.00;;;0.00;;
22841;SDS011;11587;47.064;15.444;2023-04-25T13:20:09;0.00;;;0.00;;
22841;SDS011;11587;47.064;15.444;2023-04-25T13:22:37;0.00;;;0.00;;
22841;SDS011;11587;47.064;15.444;2023-04-25T13:25:03;0.00;;;0.00;;
22841;SDS011;11587;47.064;15.444;2023-04-25T13:27:30;0.00;;;0.00;;
22841;SDS011;11587;47.064;15.444;2023-04-25T13:29:58;0.00;;;0.00;;
22841;SDS011;11587;47.064;15.444;2023-04-25T13:32:24;0.00;;;0.00;;
22841;SDS011;11587;47.064;15.444;2023-04-25T13:34:50;0.00;;;0.00;;
22841;SDS011;11587;47.064;15.444;2023-04-25T13:37:16;0.00;;;0.00;;
22841;SDS011;11587;47.064;15.444;2023-04-25T13:39:42;0.00;;;0.00;;
22841;SDS011;11587;47.064;15.444;2023-04-25T13:42:08;0.00;;;0.00;;
22841;SDS011;11587;47.064;15.444;2023-04-25T13:44:36;0.00;;;0.00;;
22841;SDS011;11587;47.064;15.444;2023-04-25T13:47:02;0.00;;;0.00;;
22841;SDS011;11587;47.064;15.444;2023-04-25T13:49:28;0.00;;;0.00;;
22841;SDS011;11587;47.064;15.444;2023-04-25T13:51:54;0.05;;;0.05;;
22841;SDS011;11587;47.064;15.444;2023-04-25T13:54:20;0.00;;;0.00;;
22841;SDS011;11587;47.064;15.444;2023-04-25T13:56:47;0.00;;;0.00;;
22841;SDS011;11587;47.064;15.444;2023-04-25T13:59:13;0.10;;;0.10;;
22841;SDS011;11587;47.064;15.444;2023-04-25T14:01:39;0.10;;;0.10;;
22841;SDS011;11587;47.064;15.444;2023-04-25T14:04:06;0.00;;;0.00;;
22841;SDS011;11587;47.064;15.444;2023-04-25T14:06:32;0.00;;;0.00;;
22841;SDS011;11587;47.064;15.444;2023-04-25T14:08:58;0.10;;;0.10;;
22841;SDS011;11587;47.064;15.444;2023-04-25T14:11:29;0.10;;;0.10;;
22841;SDS011;11587;47.064;15.444;2023-04-25T14:13:55;0.10;;;0.10;;
22841;SDS011;11587;47.064;15.444;2023-04-25T14:16:21;0.00;;;0.00;;
22841;SDS011;11587;47.064;15.444;2023-04-25T14:18:48;0.10;;;0.10;;
22841;SDS011;11587;47.064;15.444;2023-04-25T14:21:14;0.00;;;0.00;;
22841;SDS011;11587;47.064;15.444;2023-04-25T14:23:40;0.10;;;0.10;;
22841;SDS011;11587;47.064;15.444;2023-04-25T14:26:06;0.10;;;0.10;;
22841;SDS011;11587;47.064;15.444;2023-04-25T14:28:32;0.10;;;0.10;;
22841;SDS011;11587;47.064;15.444;2023-04-25T14:30:58;0.10;;;0.10;;
22841;SDS011;11587;47.064;15.444;2023-04-25T14:33:25;0.00;;;0.00;;
22841;SDS011;11587;47.064;15.444;2023-04-25T14:35:51;0.10;;;0.10;;
22841;SDS011;11587;47.064;15.444;2023-04-25T14:38:17;0.10;;;0.10;;
22841;SDS011;11587;47.064;15.444;2023-04-25T14:40:48;0.10;;;0.10;;
22841;SDS011;11587;47.064;15.444;2023-04-25T14:43:14;0.10;;;0.10;;
22841;SDS011;11587;47.064;15.444;2023-04-25T14:45:40;0.10;;;0.10;;
22841;SDS011;11587;47.064;15.444;2023-04-25T14:48:06;0.10;;;0.10;;